Thunder radar more information blitzortung!


Radar de pluja more information rain snow radar


Visita la nostra xarxa de llocs de meteo:

Template documentation
and downloads

And another site



Extreme low temperature From: 13-12-2017 09:00 Until: 09:59 warning for: Extreme low temperature Level: Yellow info button

Pagina Historial Weather Underground text

Diari Resum Juny 19, 2016 Unitats:  Mètric    Imperial   Tant
« Previous Dia
SegĂźent Dia »
Diari Setmana Mensual Anual Personalitzada
  Maxima: Minima: Media:
Temperatura: 28.2 °C 11.1 °C 21.1 °C
Punt de rosada: 10.3 °C 4.4 °C 7.6 °C
Humitat: 72 % 27 % 44 %
Wind Speed: 16.7 km/h 0.0 km/h 5 km/h
RĂ fegues de vent: 16.7 km/h - -
Vent:- - SSE
Pression baro: 1023.9 hPa 1018.8 hPa -
Precipitacions: 0.0 mm    
Historical Graphs
 
 
Dades de taula per Juny 19, 2016
Temps Temperatura Punt de rosada Pression baro Vent Wind Speed RĂ fegues de vent Humitat Rainfall Rate (Hourly)
00:00 14.9 °C 7.4 °C 1023.9 hPa NE 1.6 km/h 1.6 km/h 61 % 0.0 mm
00:05 14.9 °C 7.4 °C 1023.9 hPa NE 1.6 km/h 1.6 km/h 61 % 0.0 mm
00:10 14.9 °C 7.4 °C 1023.9 hPa NE 2.3 km/h 2.3 km/h 61 % 0.0 mm
00:15 14.9 °C 7.4 °C 1023.9 hPa NE 2.3 km/h 2.3 km/h 61 % 0.0 mm
00:25 11.1 °C 6.2 °C 1022.9 hPa West 3.2 km/h 3.2 km/h 72 % 0.0 mm
00:35 11.1 °C 6.1 °C 1023.9 hPa West 3.2 km/h 3.2 km/h 71 % 0.0 mm
00:45 11.1 °C 6.2 °C 1023.9 hPa West 3.2 km/h 3.2 km/h 72 % 0.0 mm
00:55 11.2 °C 6.3 °C 1023.9 hPa West 3.2 km/h 3.2 km/h 72 % 0.0 mm
01:05 11.3 °C 6.2 °C 1023.9 hPa West 3.2 km/h 3.2 km/h 71 % 0.0 mm
01:15 11.3 °C 6.2 °C 1022.9 hPa West 3.2 km/h 3.2 km/h 71 % 0.0 mm
01:25 11.4 °C 6.1 °C 1022.9 hPa West 3.2 km/h 3.2 km/h 70 % 0.0 mm
01:35 11.4 °C 6.1 °C 1023.9 hPa West 3.2 km/h 3.2 km/h 70 % 0.0 mm
01:45 11.4 °C 6.1 °C 1022.9 hPa West 3.2 km/h 3.2 km/h 70 % 0.0 mm
01:55 11.6 °C 6.1 °C 1022.9 hPa West 3.2 km/h 3.2 km/h 69 % 0.0 mm
02:05 11.9 °C 6.4 °C 1023.9 hPa West 3.2 km/h 3.2 km/h 69 % 0.0 mm
02:15 12.6 °C 6.6 °C 1023.9 hPa West 3.2 km/h 3.2 km/h 67 % 0.0 mm
02:25 13.1 °C 6.9 °C 1023.9 hPa West 3.2 km/h 3.2 km/h 66 % 0.0 mm
02:35 13.6 °C 7.2 °C 1023.9 hPa West 3.2 km/h 3.2 km/h 65 % 0.0 mm
02:45 14.0 °C 7.3 °C 1023.9 hPa West 3.2 km/h 3.2 km/h 64 % 0.0 mm
02:55 14.3 °C 7.6 °C 1023.9 hPa West 3.2 km/h 3.2 km/h 64 % 0.0 mm
03:05 14.7 °C 7.7 °C 1023.9 hPa West 3.2 km/h 3.2 km/h 63 % 0.0 mm
03:15 15.0 °C 7.8 °C 1023.9 hPa West 3.2 km/h 3.2 km/h 62 % 0.0 mm
03:25 15.6 °C 8.1 °C 1023.9 hPa West 3.2 km/h 3.2 km/h 61 % 0.0 mm
03:35 15.7 °C 7.9 °C 1023.9 hPa NNE 4.8 km/h 4.8 km/h 60 % 0.0 mm
03:45 15.6 °C 7.6 °C 1023.9 hPa NE 4.8 km/h 6.4 km/h 59 % 0.0 mm
03:55 16.1 °C 7.8 °C 1023.9 hPa ENE 4.8 km/h 4.8 km/h 58 % 0.0 mm
04:05 16.2 °C 7.9 °C 1023.9 hPa NE 4.8 km/h 4.8 km/h 58 % 0.0 mm
04:15 16.6 °C 8.1 °C 1023.9 hPa NE 4.8 km/h 8.0 km/h 57 % 0.0 mm
04:25 16.8 °C 7.9 °C 1023.9 hPa NE 4.8 km/h 8.0 km/h 56 % 0.0 mm
04:35 17.0 °C 7.9 °C 1023.9 hPa NE 4.8 km/h 8.0 km/h 55 % 0.0 mm
04:45 17.6 °C 8.4 °C 1023.9 hPa NE 4.8 km/h 6.4 km/h 55 % 0.0 mm
04:55 17.9 °C 8.4 °C 1023.9 hPa NE 4.8 km/h 6.4 km/h 54 % 0.0 mm
05:05 18.4 °C 8.7 °C 1023.9 hPa NE 3.2 km/h 6.4 km/h 53 % 0.0 mm
05:15 19.0 °C 8.9 °C 1023.9 hPa NE 1.6 km/h 3.2 km/h 52 % 0.0 mm
05:25 19.5 °C 9.1 °C 1023.9 hPa NE 8.0 km/h 8.0 km/h 51 % 0.0 mm
05:35 19.9 °C 9.4 °C 1023.9 hPa NE 3.2 km/h 6.4 km/h 51 % 0.0 mm
05:45 20.2 °C 9.4 °C 1023.9 hPa NE 8.0 km/h 9.7 km/h 50 % 0.0 mm
05:55 20.5 °C 9.7 °C 1023.9 hPa ENE 3.2 km/h 9.7 km/h 50 % 0.0 mm
11:00 21.0 °C 9.9 °C 1022.9 hPa ENE 3.9 km/h 3.9 km/h 49 % 0.0 mm
11:05 21.0 °C 9.6 °C 1022.9 hPa ENE 3.9 km/h 3.9 km/h 48 % 0.0 mm
11:10 21.3 °C 9.8 °C 1022.9 hPa ENE 3.9 km/h 3.9 km/h 48 % 0.0 mm
11:12 21.5 °C 10.0 °C 1022.9 hPa ENE 3.9 km/h 3.9 km/h 48 % 0.0 mm
11:17 21.8 °C 10.0 °C 1022.9 hPa ENE 3.9 km/h 3.9 km/h 47 % 0.0 mm
11:22 22.1 °C 10.3 °C 1022.9 hPa ENE 3.9 km/h 3.9 km/h 47 % 0.0 mm
11:27 22.1 °C 9.6 °C 1022.9 hPa ENE 3.9 km/h 3.9 km/h 45 % 0.0 mm
11:32 22.2 °C 9.7 °C 1022.9 hPa ENE 3.9 km/h 3.9 km/h 45 % 0.0 mm
11:37 22.4 °C 9.6 °C 1022.9 hPa ENE 3.9 km/h 3.9 km/h 44 % 0.0 mm
11:42 22.9 °C 9.7 °C 1022.9 hPa ENE 3.9 km/h 3.9 km/h 43 % 0.0 mm
11:47 23.3 °C 9.7 °C 1022.9 hPa ENE 3.9 km/h 3.9 km/h 42 % 0.0 mm
11:52 23.3 °C 9.7 °C 1022.9 hPa ENE 3.9 km/h 3.9 km/h 42 % 0.0 mm
11:57 23.3 °C 9.7 °C 1022.9 hPa ENE 3.9 km/h 3.9 km/h 42 % 0.0 mm
12:02 23.3 °C 9.7 °C 1022.9 hPa ENE 3.9 km/h 3.9 km/h 42 % 0.0 mm
12:07 23.3 °C 9.7 °C 1022.9 hPa ENE 3.9 km/h 3.9 km/h 42 % 0.0 mm
12:12 23.3 °C 9.7 °C 1022.9 hPa ENE 3.9 km/h 3.9 km/h 42 % 0.0 mm
12:17 23.3 °C 9.7 °C 1022.9 hPa ENE 3.9 km/h 3.9 km/h 42 % 0.0 mm
12:22 23.3 °C 9.7 °C 1022.9 hPa ENE 3.9 km/h 3.9 km/h 42 % 0.0 mm
12:27 23.3 °C 9.7 °C 1022.9 hPa ENE 3.9 km/h 3.9 km/h 42 % 0.0 mm
12:32 25.4 °C 9.7 °C 1022.9 hPa ESE 5.6 km/h 5.6 km/h 37 % 0.0 mm
12:37 25.1 °C 8.6 °C 1022.9 hPa SW 3.9 km/h 6.4 km/h 35 % 0.0 mm
12:42 24.9 °C 8.4 °C 1022.9 hPa NE 7.4 km/h 7.4 km/h 35 % 0.0 mm
12:47 24.6 °C 8.6 °C 1022.9 hPa South 1.9 km/h 2.3 km/h 36 % 0.0 mm
12:52 25.0 °C 8.1 °C 1022.9 hPa ESE 11.1 km/h 11.1 km/h 34 % 0.0 mm
12:57 24.3 °C 7.8 °C 1022.9 hPa ESE 8.7 km/h 8.7 km/h 35 % 0.0 mm
13:02 24.2 °C 7.8 °C 1022.9 hPa ESE 11.1 km/h 11.1 km/h 35 % 0.0 mm
13:07 24.2 °C 7.8 °C 1022.9 hPa SSW 11.1 km/h 11.1 km/h 35 % 0.0 mm
13:12 24.2 °C 7.8 °C 1022.9 hPa ESE 7.4 km/h 7.4 km/h 35 % 0.0 mm
13:17 24.2 °C 7.8 °C 1022.9 hPa ESE 13.0 km/h 13.0 km/h 35 % 0.0 mm
13:22 25.0 °C 7.6 °C 1022.9 hPa SSE 9.3 km/h 9.3 km/h 33 % 0.0 mm
13:27 24.5 °C 7.2 °C 1022.9 hPa SSE 13.0 km/h 13.0 km/h 33 % 0.0 mm
13:32 24.4 °C 7.1 °C 1022.9 hPa SE 7.4 km/h 7.4 km/h 33 % 0.0 mm
13:37 25.3 °C 7.9 °C 1022.9 hPa SW 7.4 km/h 7.4 km/h 33 % 0.0 mm
13:42 25.9 °C 7.4 °C 1022.9 hPa ESE 9.3 km/h 9.3 km/h 31 % 0.0 mm
13:47 25.7 °C 7.3 °C 1022.9 hPa ESE 11.1 km/h 11.1 km/h 31 % 0.0 mm
13:52 24.9 °C 7.1 °C 1022.9 hPa SSE 9.3 km/h 9.3 km/h 32 % 0.0 mm
13:57 25.5 °C 6.7 °C 1021.9 hPa SSE 9.3 km/h 9.3 km/h 30 % 0.0 mm
14:02 26.1 °C 7.2 °C 1021.9 hPa SW 15.8 km/h 15.8 km/h 30 % 0.0 mm
14:07 26.4 °C 7.4 °C 1021.9 hPa South 11.1 km/h 11.1 km/h 30 % 0.0 mm
14:12 26.9 °C 7.8 °C 1021.9 hPa SW 5.8 km/h 5.8 km/h 30 % 0.0 mm
14:17 26.0 °C 6.6 °C 1021.9 hPa ESE 5.6 km/h 5.8 km/h 29 % 0.0 mm
14:22 26.1 °C 6.7 °C 1021.9 hPa SW 7.4 km/h 7.4 km/h 29 % 0.0 mm
14:27 26.8 °C 7.3 °C 1021.9 hPa South 9.3 km/h 9.3 km/h 29 % 0.0 mm
14:32 25.8 °C 5.9 °C 1021.9 hPa ESE 16.7 km/h 16.7 km/h 28 % 0.0 mm
14:37 26.3 °C 6.8 °C 1021.9 hPa West 3.7 km/h 3.7 km/h 29 % 0.0 mm
14:42 26.6 °C 7.1 °C 1021.9 hPa ESE 9.0 km/h 9.0 km/h 29 % 0.0 mm
14:47 26.1 °C 6.7 °C 1021.9 hPa SSW 9.3 km/h 9.3 km/h 29 % 0.0 mm
14:52 26.8 °C 7.3 °C 1021.9 hPa SW 7.4 km/h 7.4 km/h 29 % 0.0 mm
14:57 27.1 °C 6.5 °C 1021.9 hPa WSW 13.0 km/h 13.0 km/h 27 % 0.0 mm
15:02 27.4 °C 6.7 °C 1021.9 hPa SSW 7.9 km/h 7.9 km/h 27 % 0.0 mm
15:07 27.8 °C 7.6 °C 1021.9 hPa SW 5.6 km/h 5.6 km/h 28 % 0.0 mm
15:12 28.2 °C 7.4 °C 1021.9 hPa South 3.7 km/h 3.7 km/h 27 % 0.0 mm
15:17 27.6 °C 7.4 °C 1021.9 hPa ESE 11.1 km/h 11.1 km/h 28 % 0.0 mm
15:22 27.6 °C 7.4 °C 1021.9 hPa ESE 6.4 km/h 6.4 km/h 28 % 0.0 mm
15:27 26.8 °C 6.8 °C 1020.9 hPa ESE 14.8 km/h 14.8 km/h 28 % 0.0 mm
15:37 26.6 °C 7.1 °C 1020.9 hPa South 13.0 km/h 13.0 km/h 29 % 0.0 mm
15:42 27.1 °C 7.0 °C 1020.9 hPa SW 11.1 km/h 11.1 km/h 28 % 0.0 mm
15:47 26.8 °C 6.8 °C 1020.9 hPa SE 11.1 km/h 11.1 km/h 28 % 0.0 mm
15:52 26.5 °C 6.5 °C 1020.9 hPa ESE 9.3 km/h 9.3 km/h 28 % 0.0 mm
15:57 26.4 °C 6.4 °C 1019.9 hPa ESE 11.1 km/h 11.1 km/h 28 % 0.0 mm
16:02 26.3 °C 6.3 °C 1019.9 hPa WNW 9.3 km/h 9.3 km/h 28 % 0.0 mm
16:07 27.1 °C 7.6 °C 1019.9 hPa WSW 7.4 km/h 7.4 km/h 29 % 0.0 mm
16:12 27.2 °C 7.1 °C 1020.9 hPa ENE 9.3 km/h 9.3 km/h 28 % 0.0 mm
16:17 27.1 °C 7.0 °C 1020.9 hPa South 13.0 km/h 13.0 km/h 28 % 0.0 mm
16:37 26.4 °C 6.4 °C 1020.9 hPa ESE 13.0 km/h 13.0 km/h 28 % 0.0 mm
16:42 26.5 °C 6.5 °C 1019.9 hPa SSW 9.3 km/h 9.3 km/h 28 % 0.0 mm
16:47 26.2 °C 6.2 °C 1019.9 hPa East 9.3 km/h 9.3 km/h 28 % 0.0 mm
16:58 26.3 °C 6.3 °C 1019.9 hPa SE 13.0 km/h 13.0 km/h 28 % 0.0 mm
17:03 27.0 °C 6.9 °C 1019.9 hPa South 5.6 km/h 5.6 km/h 28 % 0.0 mm
17:08 27.7 °C 7.6 °C 1019.9 hPa WNW 9.3 km/h 9.3 km/h 28 % 0.0 mm
17:13 27.3 °C 7.2 °C 1019.9 hPa SW 11.1 km/h 11.1 km/h 28 % 0.0 mm
17:18 27.7 °C 7.6 °C 1019.9 hPa West 7.6 km/h 7.6 km/h 28 % 0.0 mm
17:23 27.6 °C 6.9 °C 1019.9 hPa South 9.3 km/h 9.3 km/h 27 % 0.0 mm
17:28 27.1 °C 6.5 °C 1019.9 hPa SW 13.0 km/h 13.0 km/h 27 % 0.0 mm
17:33 26.4 °C 5.9 °C 1019.9 hPa SSW 10.0 km/h 10.0 km/h 27 % 0.0 mm
17:38 26.7 °C 6.2 °C 1019.9 hPa WSW 5.6 km/h 5.6 km/h 27 % 0.0 mm
17:43 27.2 °C 7.1 °C 1019.9 hPa WSW 11.1 km/h 11.1 km/h 28 % 0.0 mm
17:48 26.6 °C 6.1 °C 1019.9 hPa South 14.8 km/h 14.8 km/h 27 % 0.0 mm
17:53 26.5 °C 6.5 °C 1019.9 hPa SSW 7.4 km/h 7.4 km/h 28 % 0.0 mm
17:58 25.7 °C 5.3 °C 1019.9 hPa WSW 14.8 km/h 14.8 km/h 27 % 0.0 mm
18:03 25.5 °C 5.1 °C 1019.9 hPa SW 13.7 km/h 13.7 km/h 27 % 0.0 mm
18:08 25.2 °C 4.9 °C 1019.9 hPa WSW 11.1 km/h 11.1 km/h 27 % 0.0 mm
18:13 25.0 °C 4.7 °C 1019.9 hPa SW 11.1 km/h 11.1 km/h 27 % 0.0 mm
18:18 25.1 °C 4.8 °C 1019.9 hPa South 9.3 km/h 9.3 km/h 27 % 0.0 mm
18:23 25.0 °C 5.2 °C 1019.9 hPa SW 11.1 km/h 11.1 km/h 28 % 0.0 mm
18:28 24.9 °C 5.6 °C 1019.9 hPa SW 13.0 km/h 13.0 km/h 29 % 0.0 mm
18:33 25.0 °C 5.2 °C 1019.9 hPa WSW 13.0 km/h 13.0 km/h 28 % 0.0 mm
18:38 25.5 °C 5.7 °C 1019.9 hPa WSW 13.0 km/h 13.0 km/h 28 % 0.0 mm
18:43 25.2 °C 5.4 °C 1019.9 hPa SW 7.4 km/h 7.4 km/h 28 % 0.0 mm
18:48 25.1 °C 5.3 °C 1019.9 hPa SSE 9.3 km/h 9.3 km/h 28 % 0.0 mm
18:53 24.7 °C 5.4 °C 1019.9 hPa SW 13.7 km/h 13.7 km/h 29 % 0.0 mm
18:58 24.5 °C 5.3 °C 1018.8 hPa SW 9.3 km/h 9.3 km/h 29 % 0.0 mm
19:03 24.6 °C 5.4 °C 1018.8 hPa SW 2.3 km/h 4.2 km/h 29 % 0.0 mm
19:08 24.4 °C 5.2 °C 1018.8 hPa SW 2.3 km/h 4.2 km/h 29 % 0.0 mm
19:13 24.2 °C 5.1 °C 1018.8 hPa SW 2.3 km/h 4.2 km/h 29 % 0.0 mm
19:18 24.3 °C 4.6 °C 1018.8 hPa SSW 5.6 km/h 6.1 km/h 28 % 0.0 mm
19:20 18.1 °C 9.4 °C 1022.9 hPa ENE 3.2 km/h 3.2 km/h 57 % 0.0 mm
19:23 24.3 °C 5.1 °C 1018.8 hPa SW 5.6 km/h 5.6 km/h 29 % 0.0 mm
19:28 24.2 °C 5.1 °C 1018.8 hPa Calm   5.0 km/h 29 % 0.0 mm
19:30 18.1 °C 9.7 °C 1022.9 hPa ENE 3.2 km/h 3.2 km/h 58 % 0.0 mm
19:33 24.2 °C 5.1 °C 1018.8 hPa SW 2.6 km/h 4.7 km/h 29 % 0.0 mm
19:38 24.1 °C 4.9 °C 1018.8 hPa SW 2.6 km/h 4.7 km/h 29 % 0.0 mm
19:40 18.1 °C 9.9 °C 1022.9 hPa ENE 3.2 km/h 3.2 km/h 59 % 0.0 mm
19:43 24.1 °C 4.9 °C 1018.8 hPa SW 2.6 km/h 4.7 km/h 29 % 0.0 mm
19:48 24.0 °C 4.8 °C 1018.8 hPa SW 2.6 km/h 4.7 km/h 29 % 0.0 mm
19:50 18.0 °C 9.9 °C 1022.9 hPa ENE 3.2 km/h 3.2 km/h 59 % 0.0 mm
19:53 23.9 °C 4.8 °C 1018.8 hPa SE 2.6 km/h 6.4 km/h 29 % 0.0 mm
19:58 23.8 °C 4.7 °C 1019.9 hPa SE 2.6 km/h 6.4 km/h 29 % 0.0 mm
20:00 17.9 °C 10.0 °C 1022.9 hPa ENE 3.2 km/h 3.2 km/h 60 % 0.0 mm
20:03 23.5 °C 4.4 °C 1019.9 hPa SE 2.6 km/h 6.4 km/h 29 % 0.0 mm
20:08 23.5 °C 4.9 °C 1019.9 hPa SW 1.9 km/h 5.3 km/h 30 % 0.0 mm
20:10 17.8 °C 9.9 °C 1022.9 hPa ENE 3.2 km/h 3.2 km/h 60 % 0.0 mm
20:13 23.4 °C 4.8 °C 1019.9 hPa SW 1.9 km/h 5.3 km/h 30 % 0.0 mm
20:20 17.6 °C 10.0 °C 1022.9 hPa ENE 3.2 km/h 3.2 km/h 61 % 0.0 mm
20:23 22.8 °C 5.2 °C 1019.9 hPa SSW 1.9 km/h 7.9 km/h 32 % 0.0 mm
20:28 22.5 °C 5.0 °C 1019.9 hPa SSW 1.9 km/h 7.9 km/h 32 % 0.0 mm
20:30 17.5 °C 10.1 °C 1023.9 hPa ENE 3.2 km/h 3.2 km/h 62 % 0.0 mm
20:33 22.3 °C 4.8 °C 1019.9 hPa SSW 1.9 km/h 7.9 km/h 32 % 0.0 mm
20:38 22.2 °C 5.2 °C 1019.9 hPa SSW 1.9 km/h 7.9 km/h 33 % 0.0 mm
20:40 17.3 °C 9.9 °C 1023.9 hPa ENE 3.2 km/h 3.2 km/h 62 % 0.0 mm
20:43 22.1 °C 5.5 °C 1019.9 hPa SSW 1.9 km/h 7.9 km/h 34 % 0.0 mm
20:48 21.8 °C 6.1 °C 1019.9 hPa SSW 1.9 km/h 7.9 km/h 36 % 0.0 mm
20:50 17.2 °C 10.1 °C 1022.9 hPa ENE 3.2 km/h 3.2 km/h 63 % 0.0 mm
20:53 21.6 °C 6.7 °C 1019.9 hPa SSW 1.9 km/h 7.9 km/h 38 % 0.0 mm
20:58 21.5 °C 7.3 °C 1019.9 hPa SSW 1.9 km/h 7.9 km/h 40 % 0.0 mm
21:00 16.5 °C 9.2 °C 1022.9 hPa ENE 3.2 km/h 3.2 km/h 62 % 0.0 mm
21:03 21.2 °C 7.4 °C 1019.9 hPa SSW 1.9 km/h 7.9 km/h 41 % 0.0 mm
21:08 21.1 °C 7.3 °C 1019.9 hPa SSW 1.9 km/h 7.9 km/h 41 % 0.0 mm
21:10 16.4 °C 9.8 °C 1022.9 hPa Calm   3.2 km/h 65 % 0.0 mm
21:13 21.0 °C 7.6 °C 1019.9 hPa SSW 1.9 km/h 7.9 km/h 42 % 0.0 mm
21:18 20.8 °C 7.8 °C 1019.9 hPa SSW 1.9 km/h 7.9 km/h 43 % 0.0 mm
21:20 16.3 °C 9.9 °C 1022.9 hPa Calm   1.6 km/h 66 % 0.0 mm
21:23 20.6 °C 7.9 °C 1019.9 hPa SSW 1.9 km/h 7.9 km/h 44 % 0.0 mm
21:28 20.4 °C 7.7 °C 1019.9 hPa SSW 1.9 km/h 7.9 km/h 44 % 0.0 mm
21:30 16.2 °C 9.8 °C 1022.9 hPa Calm   1.6 km/h 66 % 0.0 mm
21:33 20.3 °C 7.9 °C 1019.9 hPa SSW 1.9 km/h 7.9 km/h 45 % 0.0 mm
21:38 20.2 °C 8.2 °C 1019.9 hPa SSW 1.9 km/h 7.9 km/h 46 % 0.0 mm
21:40 16.3 °C 10.2 °C 1022.9 hPa ENE 1.6 km/h 1.6 km/h 67 % 0.0 mm
21:43 20.0 °C 8.3 °C 1019.9 hPa SSW 1.9 km/h 7.9 km/h 47 % 0.0 mm
21:48 19.9 °C 8.6 °C 1019.9 hPa SSW 1.9 km/h 7.9 km/h 48 % 0.0 mm
21:50 16.2 °C 10.1 °C 1022.9 hPa Calm   1.6 km/h 67 % 0.0 mm
21:53 19.9 °C 8.6 °C 1019.9 hPa SSW 1.9 km/h 7.9 km/h 48 % 0.0 mm
21:58 19.7 °C 8.4 °C 1020.9 hPa SSW 1.9 km/h 7.9 km/h 48 % 0.0 mm
22:00 16.1 °C 9.9 °C 1021.9 hPa Calm   1.6 km/h 67 % 0.0 mm
22:03 19.6 °C 8.6 °C 1020.9 hPa SSW 1.9 km/h 7.9 km/h 49 % 0.0 mm
22:08 19.5 °C 8.5 °C 1020.9 hPa SSW 1.9 km/h 7.9 km/h 49 % 0.0 mm
22:10 15.9 °C 9.8 °C 1021.9 hPa Calm   1.6 km/h 67 % 0.0 mm
22:13 19.4 °C 8.4 °C 1021.9 hPa SSW 1.9 km/h 7.9 km/h 49 % 0.0 mm
22:18 19.2 °C 8.5 °C 1021.9 hPa SSW 1.9 km/h 7.9 km/h 50 % 0.0 mm
22:23 19.1 °C 8.4 °C 1021.9 hPa SSW 1.9 km/h 7.9 km/h 50 % 0.0 mm
22:28 19.0 °C 8.3 °C 1021.9 hPa SSW 1.9 km/h 7.9 km/h 50 % 0.0 mm
22:30 15.7 °C 9.8 °C 1021.9 hPa Calm   1.6 km/h 68 % 0.0 mm
22:33 19.0 °C 8.3 °C 1021.9 hPa SW 3.9 km/h 3.9 km/h 50 % 0.0 mm
22:38 18.8 °C 8.7 °C 1021.9 hPa SW 3.9 km/h 3.9 km/h 52 % 0.0 mm
22:40 15.6 °C 9.7 °C 1021.9 hPa Calm   1.6 km/h 68 % 0.0 mm
22:43 18.8 °C 8.7 °C 1020.9 hPa SW 3.9 km/h 3.9 km/h 52 % 0.0 mm
22:48 18.7 °C 8.9 °C 1020.9 hPa SW 3.9 km/h 3.9 km/h 53 % 0.0 mm
22:50 15.5 °C 9.6 °C 1021.9 hPa Calm   1.6 km/h 68 % 0.0 mm
22:53 18.6 °C 8.8 °C 1020.9 hPa NE 2.3 km/h 2.3 km/h 53 % 0.0 mm
22:58 18.6 °C 8.8 °C 1021.9 hPa Calm     53 % 0.0 mm
23:00 15.3 °C 9.2 °C 1021.9 hPa Calm   1.6 km/h 67 % 0.0 mm
23:03 18.6 °C 8.8 °C 1021.9 hPa Calm   1.4 km/h 53 % 0.0 mm
23:08 18.6 °C 8.8 °C 1021.9 hPa Calm   1.4 km/h 53 % 0.0 mm
23:10 15.1 °C 9.2 °C 1021.9 hPa Calm   1.6 km/h 68 % 0.0 mm
23:13 18.5 °C 8.7 °C 1021.9 hPa Calm   1.4 km/h 53 % 0.0 mm
23:18 18.4 °C 8.9 °C 1021.9 hPa Calm   1.4 km/h 54 % 0.0 mm
23:20 14.9 °C 9.1 °C 1021.9 hPa Calm   1.6 km/h 68 % 0.0 mm
23:23 18.3 °C 8.8 °C 1021.9 hPa Calm   1.4 km/h 54 % 0.0 mm
23:28 18.2 °C 8.7 °C 1021.9 hPa Calm   1.4 km/h 54 % 0.0 mm
23:30 14.6 °C 9.0 °C 1021.9 hPa Calm   1.6 km/h 69 % 0.0 mm
23:33 18.2 °C 9.0 °C 1021.9 hPa Calm   1.4 km/h 55 % 0.0 mm
23:38 18.2 °C 9.0 °C 1021.9 hPa Calm   1.4 km/h 55 % 0.0 mm
23:40 14.5 °C 8.9 °C 1021.9 hPa Calm     69 % 0.0 mm
23:43 18.2 °C 9.0 °C 1022.9 hPa Calm   1.4 km/h 55 % 0.0 mm
23:48 18.2 °C 9.0 °C 1022.9 hPa Calm   1.4 km/h 55 % 0.0 mm
23:50 14.2 °C 8.4 °C 1021.9 hPa South 1.6 km/h 3.2 km/h 68 % 0.0 mm
23:53 18.1 °C 8.9 °C 1022.9 hPa Calm   1.4 km/h 55 % 0.0 mm
23:58 18.1 °C 8.9 °C 1022.9 hPa Calm   1.4 km/h 55 % 0.0 mm
Meteo Sesrovires
Elogis d' Weather Underground - 3.75 mb

Guio original per  Jim McMurry - jmcmurry@mwt.net Adaptat per a la plantilla per  Wim van der Kuil - Leuven-Template.eu

Trobareu la nostra informacio del temps tambe a:

Weather Underground

AWEKAS